createdAt,value
2019-04-21T00:02:30.772Z,94.40
2019-04-21T00:05:15.089Z,92.60
2019-04-21T00:07:46.994Z,92.50
2019-04-21T00:10:12.554Z,93.90
2019-04-21T00:12:40.545Z,93.50
2019-04-21T00:15:07.402Z,95.70
2019-04-21T00:17:26.558Z,95.50
2019-04-21T00:20:09.233Z,95.50
2019-04-21T00:22:38.056Z,98.50
2019-04-21T00:25:16.583Z,95.70
2019-04-21T00:27:43.770Z,96.80
2019-04-21T00:30:17.317Z,97.20
2019-04-21T00:32:41.877Z,97.40
2019-04-21T00:35:04.757Z,97.60
2019-04-21T00:37:50.585Z,99.10
2019-04-21T00:40:22.744Z,99.90
2019-04-21T00:42:43.113Z,99.60
2019-04-21T00:45:16.799Z,99.90
2019-04-21T00:47:45.869Z,99.90
2019-04-21T00:50:17.900Z,99.90
2019-04-21T00:53:04.743Z,99.90
2019-04-21T00:57:58.633Z,99.90
2019-04-21T01:00:27.747Z,99.90
2019-04-21T01:03:00.938Z,99.90
2019-04-21T01:05:27.186Z,99.90
2019-04-21T01:07:57.903Z,99.90
2019-04-21T01:10:24.263Z,99.90
2019-04-21T01:13:04.014Z,99.90
2019-04-21T01:15:39.886Z,99.90
2019-04-21T01:18:04.520Z,99.90
2019-04-21T01:20:17.269Z,99.90
2019-04-21T01:22:41.666Z,99.90
2019-04-21T01:25:19.969Z,99.90
2019-04-21T01:27:53.775Z,99.90
2019-04-21T01:30:28.556Z,99.90
2019-04-21T01:33:00.138Z,99.90
2019-04-21T01:35:34.678Z,99.90
2019-04-21T01:38:01.860Z,99.90
2019-04-21T01:40:37.240Z,99.90
2019-04-21T01:43:04.843Z,99.90
2019-04-21T01:45:34.868Z,99.90
2019-04-21T01:48:01.152Z,99.90
2019-04-21T01:50:36.267Z,99.90
2019-04-21T01:53:24.639Z,99.90
2019-04-21T01:55:54.423Z,99.90
2019-04-21T01:58:23.032Z,99.90
2019-04-21T02:01:02.071Z,99.90
2019-04-21T02:06:11.093Z,99.90
2019-04-21T02:08:33.439Z,99.90
2019-04-21T02:11:12.250Z,99.90
2019-04-21T02:13:35.189Z,99.90
2019-04-21T02:16:12.480Z,99.90
2019-04-21T02:18:42.167Z,99.90
2019-04-21T02:20:57.374Z,99.90
2019-04-21T02:23:47.962Z,99.90
2019-04-21T02:26:10.109Z,99.90
2019-04-21T02:29:00.074Z,99.90
2019-04-21T02:31:22.867Z,99.90
2019-04-21T02:33:55.668Z,99.90
2019-04-21T02:38:57.729Z,99.90
2019-04-21T02:41:26.494Z,99.90
2019-04-21T02:43:52.343Z,99.90
2019-04-21T02:46:22.353Z,99.90
2019-04-21T02:48:56.393Z,99.90
2019-04-21T02:51:29.226Z,99.90
2019-04-21T02:54:28.754Z,99.90
2019-04-21T02:56:28.331Z,99.90
2019-04-21T02:59:02.282Z,99.90
2019-04-21T03:02:00.875Z,99.90
2019-04-21T03:04:26.688Z,99.90
2019-04-21T03:06:56.350Z,99.90
2019-04-21T03:09:28.074Z,99.90
2019-04-21T03:12:02.462Z,99.90
2019-04-21T03:14:35.985Z,99.90
2019-04-21T03:16:47.182Z,99.90
2019-04-21T03:19:30.028Z,99.90
2019-04-21T03:22:02.958Z,99.90
2019-04-21T03:24:17.693Z,99.90
2019-04-21T03:27:09.816Z,99.90
2019-04-21T03:29:29.451Z,99.90
2019-04-21T03:34:41.160Z,99.90
2019-04-21T03:39:29.521Z,99.90
2019-04-21T03:42:07.284Z,99.90
2019-04-21T03:44:40.190Z,99.90
2019-04-21T03:47:04.384Z,99.90
2019-04-21T03:52:03.677Z,99.90
2019-04-21T03:54:30.879Z,99.90
2019-04-21T03:57:11.035Z,99.90
2019-04-21T03:59:16.271Z,99.90
2019-04-21T04:07:49.769Z,99.90
2019-04-21T04:10:08.043Z,99.90
2019-04-21T04:12:18.988Z,99.90
2019-04-21T04:14:50.279Z,99.90
2019-04-21T04:19:59.078Z,99.90
2019-04-21T04:27:46.999Z,99.90
2019-04-21T04:29:59.329Z,99.90
2019-04-21T04:32:32.999Z,99.90
2019-04-21T04:40:00.487Z,99.90
2019-04-21T04:47:29.956Z,99.90
2019-04-21T04:50:15.928Z,99.90
2019-04-21T04:57:57.719Z,99.90
2019-04-21T05:00:14.550Z,99.90
2019-04-21T05:02:33.640Z,99.90
2019-04-21T05:05:19.376Z,99.90
2019-04-21T05:07:44.618Z,99.90
2019-04-21T05:10:18.517Z,99.90
2019-04-21T05:12:29.424Z,99.90
2019-04-21T05:15:07.760Z,99.90
2019-04-21T05:17:37.833Z,99.90
2019-04-21T05:20:10.335Z,99.90
2019-04-21T05:22:32.803Z,99.90
2019-04-21T05:24:53.788Z,99.90
2019-04-21T05:27:26.186Z,99.90
2019-04-21T05:30:15.307Z,99.90
2019-04-21T05:32:55.547Z,99.90
2019-04-21T05:35:39.176Z,99.90
2019-04-21T05:38:12.808Z,99.90
2019-04-21T05:40:31.884Z,99.90
2019-04-21T05:43:07.890Z,99.90
2019-04-21T05:45:40.986Z,99.90
2019-04-21T05:48:23.186Z,99.90
2019-04-21T05:50:37.731Z,99.90
2019-04-21T05:53:20.908Z,99.90
2019-04-21T05:58:11.562Z,99.90
2019-04-21T06:01:14.655Z,99.90
2019-04-21T06:03:23.140Z,99.90
2019-04-21T06:06:05.392Z,99.90
2019-04-21T06:08:29.717Z,99.90
2019-04-21T06:11:13.512Z,99.90
2019-04-21T06:13:35.141Z,99.90
2019-04-21T06:15:57.003Z,99.90
2019-04-21T06:18:41.343Z,99.90
2019-04-21T06:20:59.788Z,99.90
2019-04-21T06:23:30.160Z,99.90
2019-04-21T06:26:20.994Z,99.90
2019-04-21T06:28:38.894Z,99.90
2019-04-21T06:33:44.627Z,99.90
2019-04-21T06:36:24.146Z,99.90
2019-04-21T06:41:21.428Z,99.90
2019-04-21T06:43:59.820Z,99.90
2019-04-21T06:46:27.840Z,99.90
2019-04-21T06:48:58.706Z,99.90
2019-04-21T06:51:23.953Z,99.90
2019-04-21T06:53:59.326Z,98.80
2019-04-21T06:56:23.566Z,97.60
2019-04-21T06:58:51.416Z,97.60
2019-04-21T07:01:26.606Z,97.30
2019-04-21T07:04:01.747Z,97.20
2019-04-21T07:06:24.602Z,95.50
2019-04-21T07:09:02.949Z,93.60
2019-04-21T07:11:21.132Z,91.50
2019-04-21T07:14:01.776Z,91.10
2019-04-21T07:16:27.090Z,91.20
2019-04-21T07:19:04.058Z,89.40
2019-04-21T07:21:19.677Z,90.40
2019-04-21T07:24:00.423Z,87.00
2019-04-21T07:26:28.333Z,81.60
2019-04-21T07:29:02.856Z,80.10
2019-04-21T07:31:25.201Z,80.70
2019-04-21T07:33:57.595Z,77.60
2019-04-21T07:36:30.569Z,77.20
2019-04-21T07:38:49.723Z,77.90
2019-04-21T07:41:22.232Z,77.30
2019-04-21T07:43:57.097Z,76.30
2019-04-21T07:46:26.397Z,74.70
2019-04-21T07:49:11.142Z,75.30
2019-04-21T07:51:45.552Z,75.50
2019-04-21T07:54:18.360Z,79.00
2019-04-21T07:56:33.229Z,75.30
2019-04-21T07:59:23.917Z,78.20
2019-04-21T08:01:48.280Z,72.50
2019-04-21T08:04:38.291Z,72.10
2019-04-21T08:06:49.442Z,69.20
2019-04-21T08:09:12.383Z,69.80
2019-04-21T08:11:45.670Z,67.10
2019-04-21T08:14:18.112Z,66.60
2019-04-21T08:16:52.068Z,64.10
2019-04-21T08:19:18.628Z,65.10
2019-04-21T08:21:55.788Z,65.30
2019-04-21T08:24:22.563Z,62.30
2019-04-21T08:26:55.678Z,56.10
2019-04-21T08:29:28.539Z,57.00
2019-04-21T08:32:03.062Z,54.30
2019-04-21T08:34:24.115Z,57.30
2019-04-21T08:36:51.572Z,55.20
2019-04-21T08:39:27.093Z,56.50
2019-04-21T08:41:49.847Z,54.30
2019-04-21T08:44:32.212Z,54.60
2019-04-21T08:46:59.133Z,55.40
2019-04-21T08:49:26.748Z,52.60
2019-04-21T08:52:21.763Z,54.20
2019-04-21T08:54:28.039Z,51.80
2019-04-21T08:57:24.247Z,52.60
2019-04-21T08:59:58.681Z,50.60
2019-04-21T09:02:34.017Z,52.80
2019-04-21T09:04:58.682Z,51.40
2019-04-21T09:07:32.067Z,51.70
2019-04-21T09:09:57.761Z,50.60
2019-04-21T09:12:28.010Z,51.30
2019-04-21T09:15:00.807Z,45.80
2019-04-21T09:17:26.278Z,47.40
2019-04-21T09:20:11.908Z,48.30
2019-04-21T09:22:30.825Z,48.20
2019-04-21T09:25:04.652Z,47.50
2019-04-21T09:27:35.643Z,44.40
2019-04-21T09:29:49.203Z,46.20
2019-04-21T09:32:19.712Z,48.10
2019-04-21T09:34:47.044Z,47.70
2019-04-21T09:37:26.820Z,47.00
2019-04-21T09:39:48.770Z,45.10
2019-04-21T09:42:16.765Z,46.50
2019-04-21T09:44:47.331Z,46.20
2019-04-21T09:47:22.554Z,40.90
2019-04-21T09:49:49.775Z,44.50
2019-04-21T09:52:21.005Z,45.90
2019-04-21T09:54:56.478Z,45.90
2019-04-21T09:57:27.542Z,43.90
2019-04-21T09:59:53.805Z,45.80
2019-04-21T10:02:32.727Z,47.20
2019-04-21T10:04:54.879Z,44.50
2019-04-21T10:07:29.872Z,45.00
2019-04-21T10:09:56.367Z,43.30
2019-04-21T10:12:25.634Z,43.40
2019-04-21T10:14:57.378Z,42.50
2019-04-21T10:17:29.609Z,41.50
2019-04-21T10:19:58.739Z,40.40
2019-04-21T10:22:28.850Z,44.30
2019-04-21T10:24:58.526Z,42.20
2019-04-21T10:27:27.627Z,41.20
2019-04-21T10:29:56.559Z,42.50
2019-04-21T10:32:25.962Z,41.60
2019-04-21T10:34:55.138Z,40.80
2019-04-21T10:37:39.142Z,41.60
2019-04-21T10:39:57.837Z,38.50
2019-04-21T10:42:27.015Z,41.80
2019-04-21T10:44:56.626Z,38.90
2019-04-21T10:47:26.863Z,39.30
2019-04-21T10:49:55.628Z,40.80
2019-04-21T10:52:28.963Z,39.90
2019-04-21T10:55:11.255Z,40.30
2019-04-21T10:57:28.460Z,39.10
2019-04-21T10:59:59.221Z,41.10
2019-04-21T11:02:39.121Z,38.90
2019-04-21T11:05:08.965Z,38.20
2019-04-21T11:08:07.830Z,39.10
2019-04-21T11:10:25.676Z,39.70
2019-04-21T11:12:54.685Z,39.60
2019-04-21T11:15:23.451Z,37.40
2019-04-21T11:17:52.367Z,38.00
2019-04-21T11:20:21.050Z,38.50
2019-04-21T11:22:49.614Z,34.10
2019-04-21T11:25:18.228Z,36.20
2019-04-21T11:27:47.094Z,36.70
2019-04-21T11:30:15.953Z,37.60
2019-04-21T11:32:46.342Z,37.80
2019-04-21T11:35:15.238Z,35.50
2019-04-21T11:37:44.094Z,37.60
2019-04-21T11:40:16.282Z,35.40
2019-04-21T11:42:44.134Z,36.10
2019-04-21T11:45:16.522Z,34.10
2019-04-21T11:47:52.748Z,31.10
2019-04-21T11:50:21.390Z,33.20
2019-04-21T11:52:49.930Z,32.80
2019-04-21T11:55:18.759Z,37.30
2019-04-21T11:57:49.603Z,34.10
2019-04-21T12:00:17.743Z,32.70
2019-04-21T12:02:47.665Z,35.70
2019-04-21T12:05:17.331Z,34.20
2019-04-21T12:07:47.092Z,34.40
2019-04-21T12:10:16.027Z,33.60
2019-04-21T12:12:45.418Z,37.50
2019-04-21T12:15:14.331Z,32.50
2019-04-21T12:17:43.994Z,33.50
2019-04-21T12:20:12.777Z,34.50
2019-04-21T12:22:41.491Z,32.60
2019-04-21T12:25:13.231Z,32.60
2019-04-21T12:27:41.920Z,31.60
2019-04-21T12:30:13.527Z,30.60
2019-04-21T12:32:48.454Z,29.20
2019-04-21T12:35:17.980Z,31.20
2019-04-21T12:37:46.923Z,32.60
2019-04-21T12:40:16.853Z,30.40
2019-04-21T12:42:45.620Z,30.90
2019-04-21T12:45:15.265Z,29.90
2019-04-21T12:47:44.106Z,30.20
2019-04-21T12:50:13.143Z,32.10
2019-04-21T12:52:41.992Z,32.50
2019-04-21T12:55:11.434Z,30.60
2019-04-21T12:57:41.524Z,30.10
2019-04-21T13:00:13.135Z,30.00
2019-04-21T13:02:41.732Z,30.50
2019-04-21T13:05:11.613Z,30.00
2019-04-21T13:07:41.501Z,30.60
2019-04-21T13:10:10.829Z,29.80
2019-04-21T13:12:39.499Z,30.00
2019-04-21T13:15:10.750Z,28.30
2019-04-21T13:17:43.959Z,30.00
2019-04-21T13:20:12.050Z,29.50
2019-04-21T13:22:41.962Z,29.30
2019-04-21T13:25:11.861Z,28.90
2019-04-21T13:27:40.935Z,29.40
2019-04-21T13:30:14.922Z,29.10
2019-04-21T13:32:45.107Z,28.60
2019-04-21T13:35:15.077Z,27.80
2019-04-21T13:37:43.863Z,29.80
2019-04-21T13:40:35.939Z,28.20
2019-04-21T13:42:51.667Z,27.80
2019-04-21T13:45:18.315Z,29.40
2019-04-21T13:47:48.399Z,28.90
2019-04-21T13:50:17.418Z,28.80
2019-04-21T13:52:46.806Z,29.70
2019-04-21T13:55:15.845Z,30.80
2019-04-21T13:57:46.071Z,28.80
2019-04-21T14:00:17.106Z,29.50
2019-04-21T14:02:46.963Z,30.10
2019-04-21T14:05:15.979Z,30.00
2019-04-21T14:07:46.058Z,30.00
2019-04-21T14:10:16.089Z,30.00
2019-04-21T14:12:46.716Z,30.10
2019-04-21T14:15:16.187Z,30.70
2019-04-21T14:17:46.694Z,30.70
2019-04-21T14:20:15.416Z,30.00
2019-04-21T14:22:44.223Z,29.90
2019-04-21T14:25:15.133Z,30.00
2019-04-21T14:27:45.671Z,30.80
2019-04-21T14:30:14.475Z,29.70
2019-04-21T14:32:44.257Z,29.80
2019-04-21T14:35:14.694Z,30.50
2019-04-21T14:37:44.516Z,31.10
2019-04-21T14:40:21.755Z,31.00
2019-04-21T14:42:44.554Z,28.80
2019-04-21T14:45:18.823Z,30.40
2019-04-21T14:47:55.138Z,29.00
2019-04-21T14:50:28.747Z,29.80
2019-04-21T14:53:17.951Z,30.00
2019-04-21T14:55:46.890Z,31.10
2019-04-21T14:58:15.500Z,30.60
2019-04-21T15:01:02.022Z,30.80
2019-04-21T15:03:32.102Z,29.50
2019-04-21T15:06:01.553Z,29.80
2019-04-21T15:08:31.284Z,29.70
2019-04-21T15:11:01.095Z,29.80
2019-04-21T15:13:30.122Z,30.00
2019-04-21T15:15:58.819Z,29.50
2019-04-21T15:18:28.583Z,30.10
2019-04-21T15:20:57.508Z,30.00
2019-04-21T15:23:28.194Z,29.70
2019-04-21T15:25:56.649Z,29.90
2019-04-21T15:28:26.293Z,30.30
2019-04-21T15:30:56.650Z,29.50
2019-04-21T15:33:26.577Z,29.10
2019-04-21T15:35:55.455Z,29.30
2019-04-21T15:38:25.533Z,29.00
2019-04-21T15:40:57.961Z,30.50
2019-04-21T15:43:28.518Z,30.70
2019-04-21T15:46:16.495Z,29.70
2019-04-21T15:48:45.201Z,29.80
2019-04-21T15:51:13.955Z,29.40
2019-04-21T15:53:45.678Z,29.10
2019-04-21T15:56:22.633Z,29.40
2019-04-21T15:59:10.370Z,28.70
2019-04-21T16:01:48.351Z,30.00
2019-04-21T16:04:18.755Z,30.00
2019-04-21T16:06:47.826Z,29.20
2019-04-21T16:09:21.416Z,29.10
2019-04-21T16:11:47.354Z,29.50
2019-04-21T16:14:16.663Z,30.20
2019-04-21T16:16:45.476Z,30.80
2019-04-21T16:19:14.364Z,29.10
2019-04-21T16:21:46.279Z,30.00
2019-04-21T16:24:14.237Z,30.10
2019-04-21T16:26:44.310Z,30.40
2019-04-21T16:29:13.722Z,29.70
2019-04-21T16:31:44.182Z,30.20
2019-04-21T16:34:13.783Z,30.30
2019-04-21T16:36:45.577Z,30.70
2019-04-21T16:39:15.483Z,30.70
2019-04-21T16:41:46.593Z,30.00
2019-04-21T16:44:16.864Z,30.30
2019-04-21T16:46:47.516Z,30.90
2019-04-21T16:49:17.757Z,30.70
2019-04-21T16:51:49.999Z,30.60
2019-04-21T16:54:20.398Z,31.40
2019-04-21T16:56:52.139Z,30.90
2019-04-21T16:59:22.311Z,30.90
2019-04-21T17:01:52.483Z,31.60
2019-04-21T17:04:22.274Z,31.70
2019-04-21T17:06:51.322Z,31.80
2019-04-21T17:09:20.910Z,31.60
2019-04-21T17:11:57.445Z,31.70
2019-04-21T17:14:39.186Z,31.50
2019-04-21T17:17:20.509Z,32.30
2019-04-21T17:19:31.010Z,32.10
2019-04-21T17:21:57.636Z,33.40
2019-04-21T17:24:28.467Z,32.40
2019-04-21T17:26:57.454Z,33.90
2019-04-21T17:29:26.298Z,33.40
2019-04-21T17:31:55.274Z,33.40
2019-04-21T17:34:29.741Z,33.70
2019-04-21T17:36:57.242Z,34.20
2019-04-21T17:39:26.992Z,34.30
2019-04-21T17:42:05.693Z,34.90
2019-04-21T17:44:27.622Z,34.30
2019-04-21T17:47:03.527Z,34.50
2019-04-21T17:49:26.676Z,34.60
2019-04-21T17:52:16.362Z,34.80
2019-04-21T17:54:48.873Z,35.40
2019-04-21T17:57:36.669Z,35.30
2019-04-21T18:00:11.414Z,36.10
2019-04-21T18:02:43.428Z,36.20
2019-04-21T18:05:13.361Z,36.20
2019-04-21T18:07:34.969Z,37.20
2019-04-21T18:10:19.120Z,35.90
2019-04-21T18:12:33.406Z,37.80
2019-04-21T18:15:02.411Z,37.90
2019-04-21T18:17:20.438Z,37.40
2019-04-21T18:19:51.837Z,37.20
2019-04-21T18:22:41.682Z,37.70
2019-04-21T18:25:25.232Z,37.50
2019-04-21T18:27:42.720Z,37.40
2019-04-21T18:30:40.531Z,38.20
2019-04-21T18:33:15.513Z,37.90
2019-04-21T18:35:59.967Z,37.90
2019-04-21T18:38:51.773Z,38.00
2019-04-21T18:41:01.453Z,38.30
2019-04-21T18:43:56.736Z,38.10
2019-04-21T18:46:39.758Z,38.40
2019-04-21T18:48:57.208Z,38.20
2019-04-21T18:51:34.707Z,38.70
2019-04-21T18:54:19.372Z,38.60
2019-04-21T18:56:27.586Z,38.00
2019-04-21T18:58:56.569Z,39.20
2019-04-21T19:01:28.297Z,39.10
2019-04-21T19:03:56.122Z,39.20
2019-04-21T19:06:42.402Z,38.60
2019-04-21T19:09:47.582Z,39.00
2019-04-21T19:12:06.025Z,39.40
2019-04-21T19:14:38.789Z,38.90
2019-04-21T19:17:33.045Z,37.80
2019-04-21T19:22:23.183Z,38.30
2019-04-21T19:24:42.389Z,38.70
2019-04-21T19:27:12.061Z,39.40
2019-04-21T19:29:46.612Z,39.60
2019-04-21T19:32:10.723Z,39.80
2019-04-21T19:34:26.023Z,39.70
2019-04-21T19:36:59.835Z,40.50
2019-04-21T19:39:37.727Z,40.80
2019-04-21T19:42:03.016Z,41.30
2019-04-21T19:44:45.577Z,42.00
2019-04-21T19:47:10.725Z,42.10
2019-04-21T19:49:45.687Z,41.80
2019-04-21T19:52:02.915Z,41.20
2019-04-21T19:54:32.040Z,41.40
2019-04-21T19:56:53.599Z,41.70
2019-04-21T19:59:34.040Z,41.60
2019-04-21T20:01:52.409Z,41.20
2019-04-21T20:04:29.819Z,42.00
2019-04-21T20:07:01.043Z,41.80
2019-04-21T20:09:37.098Z,41.60
2019-04-21T20:12:06.407Z,41.70
2019-04-21T20:17:04.618Z,42.10
2019-04-21T20:19:23.377Z,42.70
2019-04-21T20:21:53.458Z,42.20
2019-04-21T20:24:26.776Z,42.20
2019-04-21T20:27:02.260Z,43.10
2019-04-21T20:29:47.059Z,43.30
2019-04-21T20:32:16.307Z,44.00
2019-04-21T20:34:53.051Z,44.00
2019-04-21T20:37:15.053Z,44.50
2019-04-21T20:39:30.748Z,44.70
2019-04-21T20:42:11.150Z,43.90
2019-04-21T20:44:42.276Z,43.70
2019-04-21T20:47:07.856Z,44.80
2019-04-21T20:49:35.207Z,45.00
2019-04-21T20:52:29.429Z,45.30
2019-04-21T20:54:40.777Z,44.30
2019-04-21T20:57:15.020Z,44.20
2019-04-21T20:59:37.487Z,45.30
2019-04-21T21:02:10.304Z,44.90
2019-04-21T21:04:36.870Z,44.70
2019-04-21T21:07:32.996Z,46.50
2019-04-21T21:09:41.456Z,45.80
2019-04-21T21:12:22.241Z,45.50
2019-04-21T21:14:42.526Z,44.80
2019-04-21T21:17:26.739Z,44.60
2019-04-21T21:19:45.620Z,44.40
2019-04-21T21:22:09.815Z,43.80
2019-04-21T21:24:47.426Z,44.70
2019-04-21T21:27:18.080Z,45.00
2019-04-21T21:29:45.339Z,46.20
2019-04-21T21:32:33.967Z,46.90
2019-04-21T21:34:49.610Z,46.80
2019-04-21T21:37:26.635Z,47.00
2019-04-21T21:39:54.852Z,47.50
2019-04-21T21:42:02.811Z,47.00
2019-04-21T21:44:32.512Z,46.50
2019-04-21T21:47:17.429Z,47.10
2019-04-21T21:49:46.368Z,47.80
2019-04-21T21:52:11.842Z,47.80
2019-04-21T21:54:31.847Z,47.40
2019-04-21T21:57:00.796Z,47.70
2019-04-21T21:59:31.800Z,47.90
2019-04-21T22:02:00.287Z,47.90
2019-04-21T22:04:32.416Z,47.60
2019-04-21T22:07:06.271Z,49.20
2019-04-21T22:09:30.612Z,49.20
2019-04-21T22:12:03.140Z,48.70
2019-04-21T22:14:37.224Z,50.30
2019-04-21T22:17:16.226Z,51.60
2019-04-21T22:19:52.504Z,50.90
2019-04-21T22:22:15.868Z,52.20
2019-04-21T22:24:46.477Z,52.10
2019-04-21T22:27:01.152Z,51.20
2019-04-21T22:29:36.331Z,51.30
2019-04-21T22:32:09.490Z,52.10
2019-04-21T22:34:38.165Z,54.40
2019-04-21T22:37:20.167Z,53.90
2019-04-21T22:39:49.679Z,53.70
2019-04-21T22:42:11.161Z,54.20
2019-04-21T22:44:32.268Z,53.40
2019-04-21T22:47:08.532Z,55.60
2019-04-21T22:49:32.515Z,55.80
2019-04-21T22:52:10.390Z,55.90
2019-04-21T22:54:36.073Z,54.80
2019-04-21T22:57:11.766Z,54.50
2019-04-21T22:59:32.412Z,54.70
2019-04-21T23:02:06.324Z,55.20
2019-04-21T23:04:39.070Z,58.00
2019-04-21T23:07:11.255Z,59.80
2019-04-21T23:09:33.183Z,58.70
2019-04-21T23:12:03.615Z,59.30
2019-04-21T23:14:45.261Z,59.50
2019-04-21T23:17:24.145Z,60.70
2019-04-21T23:19:46.248Z,60.10
2019-04-21T23:22:23.214Z,60.70
2019-04-21T23:24:59.539Z,60.90
2019-04-21T23:27:14.132Z,62.50
2019-04-21T23:30:08.402Z,61.60
2019-04-21T23:32:20.543Z,59.40
2019-04-21T23:34:38.348Z,60.70
2019-04-21T23:37:12.606Z,63.00
2019-04-21T23:39:37.530Z,61.20
2019-04-21T23:42:07.152Z,63.30
2019-04-21T23:44:41.848Z,60.90
2019-04-21T23:47:09.997Z,62.30
2019-04-21T23:49:49.622Z,63.70
2019-04-21T23:52:10.112Z,65.20
2019-04-21T23:54:37.616Z,66.30
2019-04-21T23:57:14.307Z,64.30
2019-04-21T23:59:40.950Z,66.00
